createdAt,value
2017-01-01T00:00:31.912Z,0
2017-01-01T00:01:31.868Z,0
2017-01-01T00:02:32.129Z,0
2017-01-01T00:03:32.052Z,0
2017-01-01T00:04:31.752Z,0
2017-01-01T00:05:32.067Z,0
2017-01-01T00:06:31.851Z,0
2017-01-01T00:07:32.027Z,0
2017-01-01T00:08:32.153Z,0
2017-01-01T00:09:32.088Z,0
2017-01-01T00:10:32.017Z,0
2017-01-01T00:11:31.958Z,0
2017-01-01T00:12:32.079Z,0
2017-01-01T00:13:31.999Z,0
2017-01-01T00:14:31.959Z,0
2017-01-01T00:15:31.968Z,0
2017-01-01T00:16:31.956Z,0
2017-01-01T00:17:32.026Z,0
2017-01-01T00:18:31.843Z,0
2017-01-01T00:19:31.819Z,0
2017-01-01T00:20:31.784Z,0
2017-01-01T00:21:31.969Z,0
2017-01-01T00:22:31.782Z,0
2017-01-01T00:23:31.806Z,0
2017-01-01T00:24:31.915Z,0
2017-01-01T00:25:31.987Z,0
2017-01-01T00:26:32.110Z,0
2017-01-01T00:27:32.162Z,0
2017-01-01T00:28:31.848Z,0
2017-01-01T00:29:31.898Z,0
2017-01-01T00:30:32.172Z,0
2017-01-01T00:31:31.781Z,0
2017-01-01T00:32:31.849Z,0
2017-01-01T00:33:31.929Z,0
2017-01-01T00:34:41.862Z,0
2017-01-01T00:35:31.985Z,0
2017-01-01T00:36:31.884Z,0
2017-01-01T00:37:31.921Z,0
2017-01-01T00:38:31.903Z,0
2017-01-01T00:39:31.661Z,0
2017-01-01T00:40:31.759Z,0
2017-01-01T00:41:31.799Z,0
2017-01-01T00:42:31.747Z,0
2017-01-01T00:43:31.771Z,0
2017-01-01T00:44:32.007Z,0
2017-01-01T00:45:31.880Z,0
2017-01-01T00:46:31.868Z,0
2017-01-01T00:47:31.913Z,0
2017-01-01T00:48:32.100Z,0
2017-01-01T00:49:32.553Z,0
2017-01-01T00:50:32.166Z,0
2017-01-01T00:51:32.168Z,0
2017-01-01T00:52:32.049Z,0
2017-01-01T00:53:31.879Z,0
2017-01-01T00:54:32.413Z,0
2017-01-01T00:55:31.880Z,0
2017-01-01T00:56:31.804Z,0
2017-01-01T00:57:31.931Z,0
2017-01-01T00:58:31.943Z,0
2017-01-01T00:59:31.959Z,0
2017-01-01T01:00:32.016Z,0
2017-01-01T01:01:31.848Z,0
2017-01-01T01:02:31.648Z,0
2017-01-01T01:03:31.844Z,0
2017-01-01T01:04:31.886Z,0
2017-01-01T01:05:31.785Z,0
2017-01-01T01:06:31.762Z,0
2017-01-01T01:07:31.887Z,0
2017-01-01T01:08:32.011Z,0
2017-01-01T01:09:32.006Z,0
2017-01-01T01:10:31.918Z,0
2017-01-01T01:11:31.854Z,0
2017-01-01T01:12:31.847Z,0
2017-01-01T01:13:31.962Z,0
2017-01-01T01:14:32.225Z,0
2017-01-01T01:15:32.031Z,0
2017-01-01T01:16:32.245Z,0
2017-01-01T01:17:31.774Z,0
2017-01-01T01:18:32.087Z,0
2017-01-01T01:19:31.664Z,0
2017-01-01T01:20:31.828Z,0
2017-01-01T01:21:31.847Z,0
2017-01-01T01:26:49.413Z,0
2017-01-01T01:27:01.351Z,0
2017-01-01T01:28:01.408Z,0
2017-01-01T01:29:01.161Z,0
2017-01-01T01:30:01.353Z,0
2017-01-01T01:31:01.383Z,0
2017-01-01T01:32:01.528Z,0
2017-01-01T01:33:01.189Z,0
2017-01-01T01:34:01.219Z,0
2017-01-01T01:35:02.511Z,0
2017-01-01T01:36:01.646Z,0
2017-01-01T01:37:01.663Z,0
2017-01-01T01:38:01.316Z,0
2017-01-01T01:39:01.282Z,0
2017-01-01T01:40:01.295Z,0
2017-01-01T01:41:01.883Z,0
2017-01-01T01:42:01.557Z,0
2017-01-01T01:43:01.472Z,0
2017-01-01T01:44:01.352Z,0
2017-01-01T01:45:01.333Z,0
2017-01-01T01:46:01.966Z,0
2017-01-01T01:47:01.367Z,0
2017-01-01T01:48:01.258Z,0
2017-01-01T01:49:01.435Z,0
2017-01-01T01:50:01.354Z,0
2017-01-01T01:51:01.303Z,0
2017-01-01T01:52:01.333Z,0
2017-01-01T01:53:01.519Z,0
2017-01-01T01:54:01.518Z,0
2017-01-01T01:55:01.328Z,0
2017-01-01T01:56:01.269Z,0
2017-01-01T01:57:01.271Z,0
2017-01-01T01:58:01.211Z,0
2017-01-01T02:03:19.220Z,0
2017-01-01T02:03:31.020Z,0
2017-01-01T02:04:31.098Z,0
2017-01-01T02:05:31.373Z,0
2017-01-01T02:06:31.006Z,0
2017-01-01T02:07:31.091Z,0
2017-01-01T02:08:31.022Z,0
2017-01-01T02:09:31.095Z,0
2017-01-01T02:10:31.158Z,0
2017-01-01T02:11:31.004Z,0
2017-01-01T02:12:30.902Z,0
2017-01-01T02:13:31.015Z,0
2017-01-01T02:14:31.019Z,0
2017-01-01T02:15:30.944Z,0
2017-01-01T02:16:31.107Z,0
2017-01-01T02:17:31.093Z,0
2017-01-01T02:18:31.219Z,0
2017-01-01T02:19:31.064Z,0
2017-01-01T02:20:30.918Z,0
2017-01-01T02:21:31.141Z,0
2017-01-01T02:22:31.093Z,0
2017-01-01T02:23:31.101Z,0
2017-01-01T02:24:31.968Z,0
2017-01-01T02:25:30.976Z,0
2017-01-01T02:26:31.045Z,0
2017-01-01T02:27:31.049Z,0
2017-01-01T02:28:31.043Z,0
2017-01-01T02:29:31.041Z,0
2017-01-01T02:30:33.019Z,0
2017-01-01T02:31:30.969Z,0
2017-01-01T02:32:31.041Z,0
2017-01-01T02:33:31.075Z,0
2017-01-01T02:34:31.003Z,0
2017-01-01T02:35:30.861Z,0
2017-01-01T02:36:31.248Z,0
2017-01-01T02:37:30.869Z,0
2017-01-01T02:38:31.032Z,0
2017-01-01T02:39:31.023Z,0
2017-01-01T02:40:30.885Z,0
2017-01-01T02:41:31.043Z,0
2017-01-01T02:42:31.160Z,0
2017-01-01T02:43:31.047Z,0
2017-01-01T02:44:31.125Z,0
2017-01-01T02:45:31.107Z,0
2017-01-01T02:46:31.098Z,0
2017-01-01T02:47:31.068Z,0
2017-01-01T02:48:31.082Z,0
2017-01-01T02:49:30.970Z,0
2017-01-01T02:50:31.017Z,0
2017-01-01T02:51:31.259Z,0
2017-01-01T02:52:31.101Z,0
2017-01-01T02:53:31.207Z,0
2017-01-01T02:54:31.012Z,0
2017-01-01T02:55:31.068Z,0
2017-01-01T02:56:31.233Z,0
2017-01-01T02:57:30.968Z,0
2017-01-01T02:58:31.079Z,0
2017-01-01T02:59:31.092Z,0
2017-01-01T03:00:31.149Z,0
2017-01-01T03:01:31.083Z,0
2017-01-01T03:02:31.210Z,0
2017-01-01T03:03:31.028Z,0
2017-01-01T03:04:33.098Z,0
2017-01-01T03:05:31.033Z,0
2017-01-01T03:06:30.975Z,0
2017-01-01T03:07:31.461Z,0
2017-01-01T03:08:31.266Z,0
2017-01-01T03:09:31.156Z,0
2017-01-01T03:10:31.185Z,0
2017-01-01T03:11:31.045Z,0
2017-01-01T03:12:31.036Z,0
2017-01-01T03:13:31.074Z,0
2017-01-01T03:14:30.966Z,0
2017-01-01T03:15:30.920Z,0
2017-01-01T03:16:31.007Z,0
2017-01-01T03:17:31.017Z,0
2017-01-01T03:18:31.058Z,0
2017-01-01T03:19:31.261Z,0
2017-01-01T03:20:31.148Z,0
2017-01-01T03:21:31.186Z,0
2017-01-01T03:22:30.958Z,0
2017-01-01T03:23:31.084Z,0
2017-01-01T03:24:31.195Z,0
2017-01-01T03:25:31.196Z,0
2017-01-01T03:26:31.693Z,0
2017-01-01T03:27:31.053Z,0
2017-01-01T03:28:31.094Z,0
2017-01-01T03:29:31.277Z,0
2017-01-01T03:30:30.977Z,0
2017-01-01T03:31:31.058Z,0
2017-01-01T03:32:31.107Z,0
2017-01-01T03:33:32.201Z,0
2017-01-01T03:34:31.036Z,0
2017-01-01T03:35:30.903Z,0
2017-01-01T03:36:31.107Z,0
2017-01-01T03:37:31.364Z,0
2017-01-01T03:38:31.279Z,0
2017-01-01T03:39:31.002Z,0
2017-01-01T03:40:30.933Z,0
2017-01-01T03:41:31.101Z,0
2017-01-01T03:42:30.934Z,0
2017-01-01T03:43:31.083Z,0
2017-01-01T03:44:31.248Z,0
2017-01-01T03:45:31.111Z,0
2017-01-01T03:46:30.957Z,0
2017-01-01T03:47:30.930Z,0
2017-01-01T03:48:30.982Z,0
2017-01-01T03:49:31.073Z,0
2017-01-01T03:50:30.948Z,0
2017-01-01T03:51:31.160Z,0
2017-01-01T03:52:30.903Z,0
2017-01-01T03:53:31.010Z,0
2017-01-01T03:54:33.271Z,0
2017-01-01T03:55:30.984Z,0
2017-01-01T03:56:30.934Z,0
2017-01-01T03:57:31.049Z,0
2017-01-01T03:58:31.171Z,0
2017-01-01T03:59:30.978Z,0
2017-01-01T04:00:31.064Z,0
2017-01-01T04:01:31.420Z,0
2017-01-01T04:02:31.146Z,0
2017-01-01T04:03:31.198Z,0
2017-01-01T04:04:30.949Z,0
2017-01-01T04:05:30.949Z,0
2017-01-01T04:06:30.967Z,0
2017-01-01T04:07:31.232Z,0
2017-01-01T04:08:31.037Z,0
2017-01-01T04:09:31.122Z,0
2017-01-01T04:10:30.988Z,0
2017-01-01T04:11:31.077Z,0
2017-01-01T04:12:31.094Z,0
2017-01-01T04:13:31.158Z,0
2017-01-01T04:14:31.067Z,0
2017-01-01T04:15:31.138Z,0
2017-01-01T04:16:31.035Z,0
2017-01-01T04:17:31.001Z,0
2017-01-01T04:18:30.986Z,0
2017-01-01T04:19:30.980Z,0
2017-01-01T04:20:31.035Z,0
2017-01-01T04:21:31.086Z,0
2017-01-01T04:22:30.989Z,0
2017-01-01T04:23:31.216Z,0
2017-01-01T04:24:31.476Z,0
2017-01-01T04:25:31.131Z,0
2017-01-01T04:26:30.978Z,0
2017-01-01T04:27:31.017Z,0
2017-01-01T04:28:30.997Z,0
2017-01-01T04:29:31.258Z,0
2017-01-01T04:30:31.773Z,0
2017-01-01T04:31:31.229Z,0
2017-01-01T04:32:31.779Z,0
2017-01-01T04:33:31.208Z,0
2017-01-01T04:34:30.927Z,0
2017-01-01T04:35:31.056Z,0
2017-01-01T04:36:30.965Z,0
2017-01-01T04:37:31.045Z,0
2017-01-01T04:38:31.055Z,0
2017-01-01T04:39:31.013Z,0
2017-01-01T04:40:30.986Z,0
2017-01-01T04:41:31.155Z,0
2017-01-01T04:42:31.166Z,0
2017-01-01T04:43:31.109Z,0
2017-01-01T04:44:31.002Z,0
2017-01-01T04:45:31.216Z,0
2017-01-01T04:46:31.417Z,0
2017-01-01T04:47:31.259Z,0
2017-01-01T04:48:32.031Z,0
2017-01-01T04:49:31.058Z,0
2017-01-01T04:50:31.016Z,0
2017-01-01T04:51:31.144Z,0
2017-01-01T04:52:31.053Z,0
2017-01-01T04:53:31.170Z,0
2017-01-01T04:54:31.258Z,0
2017-01-01T04:55:31.119Z,0
2017-01-01T04:56:31.027Z,0
2017-01-01T04:57:31.040Z,0
2017-01-01T04:58:31.068Z,0
2017-01-01T04:59:31.080Z,0
2017-01-01T05:00:30.977Z,0
2017-01-01T05:01:31.121Z,0
2017-01-01T05:02:31.006Z,0
2017-01-01T05:03:31.248Z,0
2017-01-01T05:04:31.070Z,0
2017-01-01T05:05:31.117Z,0
2017-01-01T05:06:31.036Z,0
2017-01-01T05:07:31.281Z,0
2017-01-01T05:08:31.227Z,0
2017-01-01T05:09:31.162Z,0
2017-01-01T05:10:31.243Z,0
2017-01-01T05:11:31.052Z,0
2017-01-01T05:12:31.133Z,0
2017-01-01T05:13:31.076Z,0
2017-01-01T05:14:31.029Z,0
2017-01-01T05:15:31.009Z,0
2017-01-01T05:16:31.028Z,0
2017-01-01T05:17:31.016Z,0
2017-01-01T05:18:31.304Z,0
2017-01-01T05:19:31.215Z,0
2017-01-01T05:20:31.227Z,0
2017-01-01T05:21:31.250Z,0
2017-01-01T05:22:31.201Z,0
2017-01-01T05:23:31.389Z,0
2017-01-01T05:24:31.068Z,0
2017-01-01T05:25:31.086Z,0
2017-01-01T05:26:31.057Z,0
2017-01-01T05:27:31.168Z,0
2017-01-01T05:28:31.310Z,0
2017-01-01T05:29:31.156Z,0
2017-01-01T05:30:31.036Z,0
2017-01-01T05:31:30.994Z,0
2017-01-01T05:32:31.149Z,0
2017-01-01T05:33:31.085Z,0
2017-01-01T05:34:31.063Z,0
2017-01-01T05:35:31.167Z,0
2017-01-01T05:36:31.100Z,0
2017-01-01T05:37:31.159Z,0
2017-01-01T05:38:31.170Z,0
2017-01-01T05:39:31.119Z,0
2017-01-01T05:40:31.134Z,0
2017-01-01T05:41:31.098Z,0
2017-01-01T05:42:31.215Z,0
2017-01-01T05:43:31.096Z,0
2017-01-01T05:44:31.145Z,0
2017-01-01T05:45:31.212Z,0
2017-01-01T05:46:31.123Z,0
2017-01-01T05:47:31.190Z,0
2017-01-01T05:48:31.193Z,0
2017-01-01T05:49:31.208Z,0
2017-01-01T05:50:31.030Z,0
2017-01-01T05:51:31.318Z,0
2017-01-01T05:52:31.092Z,0
2017-01-01T05:53:31.309Z,0
2017-01-01T05:54:31.140Z,0
2017-01-01T05:55:31.751Z,0
2017-01-01T05:56:31.089Z,0
2017-01-01T05:57:31.041Z,0
2017-01-01T05:58:31.271Z,0
2017-01-01T05:59:31.204Z,0
2017-01-01T06:00:31.115Z,0
2017-01-01T06:01:31.219Z,0
2017-01-01T06:02:31.222Z,0
2017-01-01T06:03:31.171Z,0
2017-01-01T06:04:31.258Z,0
2017-01-01T06:05:31.264Z,0
2017-01-01T06:06:31.169Z,0
2017-01-01T06:07:31.181Z,0
2017-01-01T06:08:31.213Z,0
2017-01-01T06:09:31.332Z,0
2017-01-01T06:10:31.063Z,0
2017-01-01T06:11:31.140Z,0
2017-01-01T06:12:31.322Z,0
2017-01-01T06:13:31.366Z,0
2017-01-01T06:14:31.283Z,0
2017-01-01T06:15:31.333Z,0
2017-01-01T06:16:31.111Z,0
2017-01-01T06:17:31.162Z,0
2017-01-01T06:18:31.173Z,0
2017-01-01T06:19:31.278Z,0
2017-01-01T06:20:31.250Z,0
2017-01-01T06:21:31.172Z,0
2017-01-01T06:22:31.289Z,0
2017-01-01T06:23:31.108Z,0
2017-01-01T06:24:31.119Z,0
2017-01-01T06:25:31.250Z,0
2017-01-01T06:26:31.317Z,0
2017-01-01T06:27:31.198Z,0
2017-01-01T06:28:31.329Z,0
2017-01-01T06:29:31.195Z,0
2017-01-01T06:30:31.153Z,0
2017-01-01T06:31:31.213Z,0
2017-01-01T06:32:31.255Z,0
2017-01-01T06:33:31.116Z,0
2017-01-01T06:34:31.307Z,0
2017-01-01T06:35:31.174Z,0
2017-01-01T06:36:31.280Z,0
2017-01-01T06:37:31.210Z,0
2017-01-01T06:38:31.108Z,0
2017-01-01T06:39:31.164Z,0
2017-01-01T06:40:31.273Z,0
2017-01-01T06:41:31.234Z,0
2017-01-01T06:42:31.222Z,0
2017-01-01T06:43:31.189Z,0
2017-01-01T06:44:31.190Z,0
2017-01-01T06:45:31.255Z,0
2017-01-01T06:46:31.163Z,0
2017-01-01T06:47:31.349Z,0
2017-01-01T06:48:31.236Z,0
2017-01-01T06:49:31.285Z,0
2017-01-01T06:50:31.354Z,0
2017-01-01T06:51:31.342Z,0
2017-01-01T06:52:31.223Z,0
2017-01-01T06:53:32.029Z,0
2017-01-01T06:54:31.262Z,0
2017-01-01T06:55:31.219Z,0
2017-01-01T06:56:31.253Z,0
2017-01-01T06:57:31.331Z,0
2017-01-01T06:58:31.280Z,0
2017-01-01T06:59:31.584Z,0
2017-01-01T07:00:31.364Z,0
2017-01-01T07:01:32.784Z,0
2017-01-01T07:02:31.380Z,0
2017-01-01T07:03:31.309Z,0
2017-01-01T07:04:31.439Z,0
2017-01-01T07:05:31.309Z,0
2017-01-01T07:06:31.252Z,0
2017-01-01T07:07:31.269Z,0
2017-01-01T07:08:31.397Z,0
2017-01-01T07:09:31.281Z,0
2017-01-01T07:10:31.251Z,0
2017-01-01T07:11:31.221Z,0
2017-01-01T07:12:31.361Z,0
2017-01-01T07:13:31.274Z,0
2017-01-01T07:14:31.183Z,0
2017-01-01T07:15:31.175Z,0
2017-01-01T07:16:31.422Z,0
2017-01-01T07:17:31.407Z,0
2017-01-01T07:18:31.190Z,0
2017-01-01T07:19:31.321Z,0
2017-01-01T07:20:31.340Z,0
2017-01-01T07:21:31.330Z,0
2017-01-01T07:22:31.249Z,0
2017-01-01T07:23:31.463Z,0
2017-01-01T07:24:31.359Z,0
2017-01-01T07:25:31.352Z,0
2017-01-01T07:26:31.289Z,0
2017-01-01T07:27:31.390Z,0
2017-01-01T07:28:31.356Z,0
2017-01-01T07:29:31.506Z,0
2017-01-01T07:30:31.297Z,0
2017-01-01T07:31:31.367Z,0
2017-01-01T07:32:31.225Z,0
2017-01-01T07:33:31.314Z,0
2017-01-01T07:34:31.435Z,0
2017-01-01T07:35:31.403Z,0
2017-01-01T07:36:31.343Z,0
2017-01-01T07:37:31.314Z,0
2017-01-01T07:38:31.677Z,5
2017-01-01T07:39:31.409Z,5
2017-01-01T07:40:31.489Z,5
2017-01-01T07:41:31.399Z,5
2017-01-01T07:42:31.380Z,5
2017-01-01T07:43:31.519Z,5
2017-01-01T07:44:31.344Z,5
2017-01-01T07:45:31.318Z,5
2017-01-01T07:46:31.348Z,5
2017-01-01T07:47:31.497Z,5
2017-01-01T07:48:31.459Z,5
2017-01-01T07:49:32.000Z,10
2017-01-01T07:50:32.663Z,10
2017-01-01T07:51:31.470Z,10
2017-01-01T07:52:31.280Z,10
2017-01-01T07:53:31.375Z,10
2017-01-01T07:54:31.398Z,10
2017-01-01T07:55:31.399Z,10
2017-01-01T07:56:31.232Z,10
2017-01-01T07:57:32.717Z,15
2017-01-01T07:58:31.407Z,15
2017-01-01T07:59:31.539Z,15
2017-01-01T08:00:31.515Z,15
2017-01-01T08:01:31.602Z,15
2017-01-01T08:02:31.586Z,15
2017-01-01T08:03:31.380Z,15
2017-01-01T08:04:31.388Z,20
2017-01-01T08:05:31.535Z,20
2017-01-01T08:06:31.383Z,20
2017-01-01T08:07:31.440Z,20
2017-01-01T08:08:31.605Z,20
2017-01-01T08:09:31.503Z,20
2017-01-01T08:10:31.292Z,25
2017-01-01T08:11:31.419Z,25
2017-01-01T08:12:31.326Z,25
2017-01-01T08:13:31.380Z,25
2017-01-01T08:14:31.448Z,25
2017-01-01T08:15:31.266Z,25
2017-01-01T08:16:31.597Z,25
2017-01-01T08:17:34.911Z,30
2017-01-01T08:18:31.390Z,30
2017-01-01T08:19:31.416Z,30
2017-01-01T08:20:31.357Z,30
2017-01-01T08:21:31.787Z,30
2017-01-01T08:22:31.554Z,35
2017-01-01T08:23:31.866Z,35
2017-01-01T08:24:31.930Z,35
2017-01-01T08:25:31.407Z,35
2017-01-01T08:26:32.320Z,35
2017-01-01T08:27:31.573Z,40
2017-01-01T08:28:31.530Z,40
2017-01-01T08:29:31.361Z,40
2017-01-01T08:30:31.610Z,45
2017-01-01T08:31:31.476Z,45
2017-01-01T08:32:31.430Z,45
2017-01-01T08:33:31.377Z,45
2017-01-01T08:34:31.481Z,45
2017-01-01T08:35:31.363Z,50
2017-01-01T08:36:31.379Z,50
2017-01-01T08:37:31.434Z,50
2017-01-01T08:38:31.406Z,50
2017-01-01T08:39:31.472Z,50
2017-01-01T08:40:31.475Z,50
2017-01-01T08:41:32.032Z,55
2017-01-01T08:42:31.503Z,55
2017-01-01T08:43:31.618Z,55
2017-01-01T08:44:31.414Z,60
2017-01-01T08:45:31.395Z,60
2017-01-01T08:46:31.437Z,60
2017-01-01T08:47:31.346Z,60
2017-01-01T08:48:31.617Z,65
2017-01-01T08:49:31.413Z,65
2017-01-01T08:50:31.446Z,65
2017-01-01T08:51:31.873Z,70
2017-01-01T08:52:31.532Z,70
2017-01-01T08:53:32.823Z,75
2017-01-01T08:54:31.841Z,80
2017-01-01T08:55:31.663Z,75
2017-01-01T08:56:31.498Z,75
2017-01-01T08:57:31.508Z,75
2017-01-01T08:58:31.589Z,75
2017-01-01T08:59:31.804Z,80
2017-01-01T09:00:31.475Z,80
2017-01-01T09:01:31.506Z,80
2017-01-01T09:02:31.581Z,85
2017-01-01T09:03:31.559Z,85
2017-01-01T09:04:31.455Z,85
2017-01-01T09:05:31.687Z,90
2017-01-01T09:06:31.891Z,90
2017-01-01T09:07:31.492Z,90
2017-01-01T09:08:31.402Z,90
2017-01-01T09:09:31.723Z,95
2017-01-01T09:10:31.594Z,95
2017-01-01T09:11:31.467Z,95
2017-01-01T09:12:31.476Z,95
2017-01-01T09:13:31.571Z,105
2017-01-01T09:14:31.598Z,110
2017-01-01T09:15:31.581Z,125
2017-01-01T09:16:31.675Z,140
2017-01-01T09:17:31.916Z,165
2017-01-01T09:18:31.451Z,170
2017-01-01T09:19:31.531Z,155
2017-01-01T09:20:31.575Z,145
2017-01-01T09:21:31.460Z,150
2017-01-01T09:22:31.656Z,160
2017-01-01T09:23:31.691Z,170
2017-01-01T09:24:31.825Z,180
2017-01-01T09:25:31.439Z,220
2017-01-01T09:26:31.584Z,255
2017-01-01T09:27:31.668Z,280
2017-01-01T09:28:31.628Z,260
2017-01-01T09:29:31.420Z,235
2017-01-01T09:30:31.455Z,230
2017-01-01T09:31:31.463Z,235
2017-01-01T09:32:31.761Z,230
2017-01-01T09:33:31.860Z,235
2017-01-01T09:34:31.609Z,235
2017-01-01T09:35:31.970Z,235
2017-01-01T09:36:31.577Z,235
2017-01-01T09:37:32.346Z,240
2017-01-01T09:38:31.524Z,240
2017-01-01T09:39:31.727Z,245
2017-01-01T09:40:31.490Z,245
2017-01-01T09:41:31.821Z,250
2017-01-01T09:42:31.452Z,250
2017-01-01T09:43:31.727Z,255
2017-01-01T09:44:31.817Z,250
2017-01-01T09:45:31.611Z,255
2017-01-01T09:46:31.766Z,260
2017-01-01T09:47:31.731Z,260
2017-01-01T09:48:32.321Z,260
2017-01-01T09:49:31.885Z,265
2017-01-01T09:50:31.736Z,265
2017-01-01T09:51:31.469Z,270
2017-01-01T09:52:31.702Z,275
2017-01-01T09:53:31.623Z,280
2017-01-01T09:54:31.774Z,275
2017-01-01T09:55:31.557Z,275
2017-01-01T09:56:31.466Z,280
2017-01-01T09:57:31.758Z,280
2017-01-01T09:58:31.821Z,285
2017-01-01T09:59:31.869Z,285
2017-01-01T10:00:31.604Z,290
2017-01-01T10:01:31.599Z,290
2017-01-01T10:02:31.922Z,290
2017-01-01T10:03:31.870Z,290
2017-01-01T10:04:31.558Z,295
2017-01-01T10:05:31.732Z,295
2017-01-01T10:06:31.752Z,295
2017-01-01T10:07:32.176Z,295
2017-01-01T10:08:32.854Z,300
2017-01-01T10:09:31.763Z,295
2017-01-01T10:10:31.650Z,300
2017-01-01T10:11:31.849Z,300
2017-01-01T10:12:31.815Z,300
2017-01-01T10:13:31.679Z,300
2017-01-01T10:14:32.281Z,295
2017-01-01T10:15:31.879Z,290
2017-01-01T10:16:31.741Z,295
2017-01-01T10:17:31.653Z,295
2017-01-01T10:18:31.852Z,290
2017-01-01T10:19:32.343Z,290
2017-01-01T10:20:31.883Z,290
2017-01-01T10:21:31.972Z,295
2017-01-01T10:22:31.952Z,290
2017-01-01T10:23:32.002Z,295
2017-01-01T10:24:31.971Z,295
2017-01-01T10:25:31.834Z,295
2017-01-01T10:26:31.718Z,295
2017-01-01T10:27:32.104Z,300
2017-01-01T10:28:32.002Z,300
2017-01-01T10:29:32.138Z,300
2017-01-01T10:30:31.903Z,300
2017-01-01T10:31:32.080Z,300
2017-01-01T10:32:31.998Z,305
2017-01-01T10:33:31.967Z,305
2017-01-01T10:34:31.607Z,305
2017-01-01T10:35:32.094Z,305
2017-01-01T10:36:31.913Z,305
2017-01-01T10:37:32.035Z,310
2017-01-01T10:38:31.885Z,310
2017-01-01T10:39:31.815Z,310
2017-01-01T10:40:31.942Z,315
2017-01-01T10:41:31.894Z,315
2017-01-01T10:42:31.972Z,315
2017-01-01T10:43:32.114Z,310
2017-01-01T10:44:32.437Z,315
2017-01-01T10:45:32.126Z,315
2017-01-01T10:46:31.803Z,320
2017-01-01T10:47:31.730Z,320
2017-01-01T10:48:31.814Z,320
2017-01-01T10:49:32.247Z,325
2017-01-01T10:50:32.848Z,325
2017-01-01T10:51:32.897Z,325
2017-01-01T10:52:32.656Z,330
2017-01-01T10:53:32.393Z,330
2017-01-01T10:54:32.391Z,335
2017-01-01T10:55:32.425Z,330
2017-01-01T10:56:32.848Z,335
2017-01-01T10:57:32.579Z,335
2017-01-01T10:58:32.463Z,335
2017-01-01T10:59:32.243Z,340
2017-01-01T11:00:32.557Z,345
2017-01-01T11:01:33.293Z,340
2017-01-01T11:02:32.577Z,345
2017-01-01T11:03:32.341Z,345
2017-01-01T11:04:33.403Z,350
2017-01-01T11:05:32.287Z,350
2017-01-01T11:06:32.245Z,350
2017-01-01T11:07:32.387Z,355
2017-01-01T11:08:32.141Z,350
2017-01-01T11:09:32.219Z,355
2017-01-01T11:10:32.403Z,360
2017-01-01T11:11:32.595Z,355
2017-01-01T11:12:32.465Z,355
2017-01-01T11:13:32.573Z,355
2017-01-01T11:14:32.815Z,360
2017-01-01T11:15:32.772Z,355
2017-01-01T11:16:32.914Z,365
2017-01-01T11:17:33.200Z,370
2017-01-01T11:18:33.319Z,375
2017-01-01T11:19:32.590Z,375
2017-01-01T11:20:32.547Z,380
2017-01-01T11:21:32.420Z,375
2017-01-01T11:22:32.014Z,375
2017-01-01T11:23:32.908Z,375
2017-01-01T11:24:32.763Z,380
2017-01-01T11:25:32.325Z,380
2017-01-01T11:26:32.473Z,375
2017-01-01T11:27:32.531Z,375
2017-01-01T11:28:32.557Z,380
2017-01-01T11:29:33.026Z,385
2017-01-01T11:30:32.569Z,390
2017-01-01T11:31:32.748Z,395
2017-01-01T11:32:32.442Z,395
2017-01-01T11:33:32.549Z,395
2017-01-01T11:34:32.930Z,395
2017-01-01T11:39:49.279Z,375
2017-01-01T11:40:02.259Z,375
2017-01-01T11:41:01.904Z,375
2017-01-01T11:42:01.874Z,370
2017-01-01T11:43:02.275Z,370
2017-01-01T11:44:03.651Z,375
2017-01-01T11:45:11.723Z,370
2017-01-01T11:46:01.524Z,370
2017-01-01T11:47:02.254Z,370
2017-01-01T11:48:02.013Z,365
2017-01-01T11:49:02.135Z,370
2017-01-01T11:50:03.149Z,375
2017-01-01T11:51:01.932Z,375
2017-01-01T11:52:01.766Z,370
2017-01-01T11:53:01.954Z,370
2017-01-01T11:54:01.669Z,370
2017-01-01T11:55:01.950Z,370
2017-01-01T11:56:01.720Z,370
2017-01-01T11:57:01.557Z,370
2017-01-01T11:58:01.552Z,365
2017-01-01T11:59:01.282Z,370
2017-01-01T12:00:02.136Z,370
2017-01-01T12:01:03.389Z,370
2017-01-01T12:02:01.523Z,370
2017-01-01T12:03:01.577Z,370
2017-01-01T12:04:01.638Z,370
2017-01-01T12:05:01.422Z,370
2017-01-01T12:06:01.682Z,375
2017-01-01T12:07:01.719Z,380
2017-01-01T12:08:01.399Z,380
2017-01-01T12:09:01.264Z,375
2017-01-01T12:10:01.284Z,375
2017-01-01T12:11:01.163Z,375
2017-01-01T12:12:01.355Z,385
2017-01-01T12:13:01.222Z,380
2017-01-01T12:14:02.126Z,380
2017-01-01T12:15:01.573Z,380
2017-01-01T12:16:01.479Z,375
2017-01-01T12:17:01.471Z,370
2017-01-01T12:18:01.512Z,370
2017-01-01T12:19:01.755Z,370
2017-01-01T12:20:01.432Z,370
2017-01-01T12:21:01.159Z,370
2017-01-01T12:22:02.469Z,365
2017-01-01T12:23:01.295Z,365
2017-01-01T12:24:00.993Z,360
2017-01-01T12:25:01.186Z,350
2017-01-01T12:26:01.386Z,355
2017-01-01T12:27:01.303Z,350
2017-01-01T12:28:01.405Z,355
2017-01-01T12:29:01.351Z,345
2017-01-01T12:30:01.453Z,345
2017-01-01T12:31:01.494Z,345
2017-01-01T12:32:01.385Z,345
2017-01-01T12:33:01.703Z,350
2017-01-01T12:34:01.620Z,355
2017-01-01T12:35:02.593Z,355
2017-01-01T12:36:01.791Z,355
2017-01-01T12:37:01.944Z,370
2017-01-01T12:38:02.194Z,375
2017-01-01T12:39:02.206Z,375
2017-01-01T12:40:01.587Z,360
2017-01-01T12:41:01.510Z,350
2017-01-01T12:42:01.796Z,360
2017-01-01T12:43:01.879Z,360
2017-01-01T12:44:01.662Z,345
2017-01-01T12:45:01.225Z,340
2017-01-01T12:46:01.518Z,350
2017-01-01T12:47:01.423Z,355
2017-01-01T12:48:01.425Z,360
2017-01-01T12:49:01.676Z,360
2017-01-01T12:50:01.295Z,370
2017-01-01T12:51:01.262Z,375
2017-01-01T12:52:01.463Z,375
2017-01-01T12:53:01.451Z,380
2017-01-01T12:54:01.385Z,385
2017-01-01T12:55:01.715Z,380
2017-01-01T12:56:01.512Z,380
2017-01-01T12:57:01.500Z,385
2017-01-01T12:58:01.487Z,385
2017-01-01T12:59:01.587Z,395
2017-01-01T13:00:02.075Z,405
2017-01-01T13:01:01.778Z,390
2017-01-01T13:02:02.378Z,395
2017-01-01T13:03:02.977Z,380
2017-01-01T13:04:01.692Z,380
2017-01-01T13:05:01.476Z,380
2017-01-01T13:06:01.490Z,380
2017-01-01T13:07:02.377Z,380
2017-01-01T13:08:01.760Z,375
2017-01-01T13:09:01.783Z,375
2017-01-01T13:10:01.800Z,375
2017-01-01T13:11:04.017Z,370
2017-01-01T13:12:01.504Z,355
2017-01-01T13:13:01.768Z,350
2017-01-01T13:14:01.796Z,350
2017-01-01T13:15:01.960Z,350
2017-01-01T13:16:02.043Z,350
2017-01-01T13:17:01.862Z,355
2017-01-01T13:18:01.789Z,340
2017-01-01T13:19:01.520Z,345
2017-01-01T13:20:01.932Z,345
2017-01-01T13:21:01.657Z,340
2017-01-01T13:22:01.745Z,350
2017-01-01T13:23:01.761Z,350
2017-01-01T13:24:01.676Z,340
2017-01-01T13:25:01.684Z,325
2017-01-01T13:26:01.696Z,320
2017-01-01T13:27:02.141Z,320
2017-01-01T13:28:01.712Z,315
2017-01-01T13:29:01.905Z,295
2017-01-01T13:30:01.630Z,290
2017-01-01T13:31:02.071Z,285
2017-01-01T13:32:01.990Z,290
2017-01-01T13:33:01.750Z,295
2017-01-01T13:34:01.819Z,285
2017-01-01T13:35:01.798Z,275
2017-01-01T13:36:01.645Z,280
2017-01-01T13:41:19.694Z,240
2017-01-01T13:41:33.022Z,240
2017-01-01T13:42:31.642Z,255
2017-01-01T13:43:31.855Z,255
2017-01-01T13:44:31.984Z,260
2017-01-01T13:45:31.797Z,280
2017-01-01T13:46:31.932Z,280
2017-01-01T13:47:32.195Z,275
2017-01-01T13:48:32.106Z,270
2017-01-01T13:49:32.250Z,265
2017-01-01T13:50:32.284Z,260
2017-01-01T13:51:32.107Z,255
2017-01-01T13:52:32.218Z,235
2017-01-01T13:53:32.354Z,230
2017-01-01T13:54:31.994Z,235
2017-01-01T13:55:32.343Z,240
2017-01-01T13:56:31.949Z,245
2017-01-01T13:57:32.141Z,240
2017-01-01T13:58:31.781Z,235
2017-01-01T13:59:31.813Z,220
2017-01-01T14:00:32.141Z,225
2017-01-01T14:01:32.156Z,225
2017-01-01T14:02:31.793Z,210
2017-01-01T14:03:32.190Z,200
2017-01-01T14:04:32.675Z,215
2017-01-01T14:05:32.224Z,230
2017-01-01T14:06:32.066Z,235
2017-01-01T14:07:32.433Z,225
2017-01-01T14:08:32.611Z,210
2017-01-01T14:09:32.007Z,210
2017-01-01T14:10:32.170Z,210
2017-01-01T14:11:32.371Z,200
2017-01-01T14:12:32.090Z,180
2017-01-01T14:13:32.284Z,170
2017-01-01T14:14:32.728Z,165
2017-01-01T14:15:32.307Z,155
2017-01-01T14:16:32.331Z,140
2017-01-01T14:17:32.184Z,140
2017-01-01T14:18:32.298Z,140
2017-01-01T14:19:32.277Z,135
2017-01-01T14:20:32.588Z,130
2017-01-01T14:21:32.514Z,125
2017-01-01T14:22:32.961Z,115
2017-01-01T14:23:32.663Z,100
2017-01-01T14:24:32.271Z,90
2017-01-01T14:25:32.704Z,85
2017-01-01T14:26:32.913Z,85
2017-01-01T14:27:33.195Z,80
2017-01-01T14:28:33.524Z,75
2017-01-01T14:29:33.555Z,70
2017-01-01T14:30:32.793Z,65
2017-01-01T14:31:32.880Z,65
2017-01-01T14:32:32.406Z,55
2017-01-01T14:33:33.410Z,55
2017-01-01T14:34:32.692Z,60
2017-01-01T14:35:32.519Z,55